sensor_id;sensor_type;location;lat;lon;timestamp;P1;durP1;ratioP1;P2;durP2;ratioP2
1925;SDS011;964;42.606;23.588;2022-07-21T00:01:57;2.67;;;2.47;;
1925;SDS011;964;42.606;23.588;2022-07-21T00:04:24;3.63;;;3.00;;
1925;SDS011;964;42.606;23.588;2022-07-21T00:06:51;2.93;;;2.73;;
1925;SDS011;964;42.606;23.588;2022-07-21T00:09:18;3.53;;;3.23;;
1925;SDS011;964;42.606;23.588;2022-07-21T00:11:45;3.87;;;3.13;;
1925;SDS011;964;42.606;23.588;2022-07-21T00:14:11;6.30;;;2.83;;
1925;SDS011;964;42.606;23.588;2022-07-21T00:16:40;3.17;;;2.77;;
1925;SDS011;964;42.606;23.588;2022-07-21T00:19:08;2.57;;;2.37;;
1925;SDS011;964;42.606;23.588;2022-07-21T00:21:35;2.80;;;2.60;;
1925;SDS011;964;42.606;23.588;2022-07-21T00:24:03;3.03;;;2.50;;
1925;SDS011;964;42.606;23.588;2022-07-21T00:26:30;2.90;;;2.70;;
1925;SDS011;964;42.606;23.588;2022-07-21T00:28:57;2.60;;;2.40;;
1925;SDS011;964;42.606;23.588;2022-07-21T00:31:24;3.30;;;3.00;;
1925;SDS011;964;42.606;23.588;2022-07-21T00:33:53;3.10;;;2.80;;
1925;SDS011;964;42.606;23.588;2022-07-21T00:36:20;3.40;;;3.10;;
1925;SDS011;964;42.606;23.588;2022-07-21T00:38:47;3.73;;;3.03;;
1925;SDS011;964;42.606;23.588;2022-07-21T00:41:14;4.00;;;3.20;;
1925;SDS011;964;42.606;23.588;2022-07-21T00:43:41;3.20;;;2.90;;
1925;SDS011;964;42.606;23.588;2022-07-21T00:46:08;3.30;;;3.00;;
1925;SDS011;964;42.606;23.588;2022-07-21T00:48:34;4.10;;;3.50;;
1925;SDS011;964;42.606;23.588;2022-07-21T00:51:02;3.37;;;3.10;;
1925;SDS011;964;42.606;23.588;2022-07-21T00:53:29;3.07;;;2.77;;
1925;SDS011;964;42.606;23.588;2022-07-21T00:55:56;2.77;;;2.43;;
1925;SDS011;964;42.606;23.588;2022-07-21T00:58:25;3.30;;;2.97;;
1925;SDS011;964;42.606;23.588;2022-07-21T01:00:52;2.70;;;2.50;;
1925;SDS011;964;42.606;23.588;2022-07-21T01:03:19;4.00;;;3.03;;
1925;SDS011;964;42.606;23.588;2022-07-21T01:05:45;16.20;;;5.67;;
1925;SDS011;964;42.606;23.588;2022-07-21T01:08:14;10.33;;;4.80;;
1925;SDS011;964;42.606;23.588;2022-07-21T01:10:41;15.90;;;4.47;;
1925;SDS011;964;42.606;23.588;2022-07-21T01:13:08;15.93;;;4.20;;
1925;SDS011;964;42.606;23.588;2022-07-21T01:15:35;4.27;;;3.87;;
1925;SDS011;964;42.606;23.588;2022-07-21T01:18:02;4.20;;;3.33;;
1925;SDS011;964;42.606;23.588;2022-07-21T01:20:31;3.30;;;3.00;;
1925;SDS011;964;42.606;23.588;2022-07-21T01:23:01;3.70;;;3.40;;
1925;SDS011;964;42.606;23.588;2022-07-21T01:25:28;6.13;;;3.27;;
1925;SDS011;964;42.606;23.588;2022-07-21T01:27:55;3.90;;;3.33;;
1925;SDS011;964;42.606;23.588;2022-07-21T01:30:22;3.33;;;3.03;;
1925;SDS011;964;42.606;23.588;2022-07-21T01:32:49;4.10;;;3.70;;
1925;SDS011;964;42.606;23.588;2022-07-21T01:35:16;5.93;;;3.40;;
1925;SDS011;964;42.606;23.588;2022-07-21T01:37:44;4.70;;;3.00;;
1925;SDS011;964;42.606;23.588;2022-07-21T01:40:13;5.57;;;3.70;;
1925;SDS011;964;42.606;23.588;2022-07-21T01:42:58;4.00;;;3.57;;
1925;SDS011;964;42.606;23.588;2022-07-21T01:45:25;5.93;;;2.90;;
1925;SDS011;964;42.606;23.588;2022-07-21T01:47:52;3.33;;;3.03;;
1925;SDS011;964;42.606;23.588;2022-07-21T01:50:19;5.20;;;3.00;;
1925;SDS011;964;42.606;23.588;2022-07-21T01:52:51;6.30;;;3.30;;
1925;SDS011;964;42.606;23.588;2022-07-21T01:55:20;3.57;;;3.27;;
1925;SDS011;964;42.606;23.588;2022-07-21T01:57:47;4.17;;;3.10;;
1925;SDS011;964;42.606;23.588;2022-07-21T02:00:14;3.90;;;3.50;;
1925;SDS011;964;42.606;23.588;2022-07-21T02:02:42;7.03;;;3.00;;
1925;SDS011;964;42.606;23.588;2022-07-21T02:05:08;5.23;;;4.00;;
1925;SDS011;964;42.606;23.588;2022-07-21T02:07:35;4.07;;;3.73;;
1925;SDS011;964;42.606;23.588;2022-07-21T02:10:02;5.90;;;3.50;;
1925;SDS011;964;42.606;23.588;2022-07-21T02:12:31;6.50;;;4.13;;
1925;SDS011;964;42.606;23.588;2022-07-21T02:14:57;7.90;;;3.30;;
1925;SDS011;964;42.606;23.588;2022-07-21T02:17:24;5.73;;;3.30;;
1925;SDS011;964;42.606;23.588;2022-07-21T02:19:51;3.57;;;3.27;;
1925;SDS011;964;42.606;23.588;2022-07-21T02:22:17;3.40;;;3.10;;
1925;SDS011;964;42.606;23.588;2022-07-21T02:24:44;3.40;;;3.10;;
1925;SDS011;964;42.606;23.588;2022-07-21T02:27:11;4.33;;;3.10;;
1925;SDS011;964;42.606;23.588;2022-07-21T02:29:39;3.90;;;3.60;;
1925;SDS011;964;42.606;23.588;2022-07-21T02:32:06;6.07;;;3.33;;
1925;SDS011;964;42.606;23.588;2022-07-21T02:34:33;5.60;;;3.37;;
1925;SDS011;964;42.606;23.588;2022-07-21T02:36:59;6.87;;;4.07;;
1925;SDS011;964;42.606;23.588;2022-07-21T02:39:26;7.10;;;4.20;;
1925;SDS011;964;42.606;23.588;2022-07-21T02:41:53;8.17;;;3.97;;
1925;SDS011;964;42.606;23.588;2022-07-21T02:44:19;4.67;;;4.00;;
1925;SDS011;964;42.606;23.588;2022-07-21T02:46:47;3.77;;;3.23;;
1925;SDS011;964;42.606;23.588;2022-07-21T02:49:14;3.87;;;3.40;;
1925;SDS011;964;42.606;23.588;2022-07-21T02:51:41;4.23;;;3.93;;
1925;SDS011;964;42.606;23.588;2022-07-21T02:54:08;3.60;;;3.30;;
1925;SDS011;964;42.606;23.588;2022-07-21T02:56:34;6.83;;;3.40;;
1925;SDS011;964;42.606;23.588;2022-07-21T02:59:01;10.13;;;3.80;;
1925;SDS011;964;42.606;23.588;2022-07-21T03:01:28;5.97;;;3.53;;
1925;SDS011;964;42.606;23.588;2022-07-21T03:03:56;6.40;;;3.40;;
1925;SDS011;964;42.606;23.588;2022-07-21T03:06:23;3.80;;;3.27;;
1925;SDS011;964;42.606;23.588;2022-07-21T03:08:50;9.47;;;4.00;;
1925;SDS011;964;42.606;23.588;2022-07-21T03:11:17;3.70;;;3.27;;
1925;SDS011;964;42.606;23.588;2022-07-21T03:13:43;4.10;;;3.70;;
1925;SDS011;964;42.606;23.588;2022-07-21T03:16:10;6.03;;;4.00;;
1925;SDS011;964;42.606;23.588;2022-07-21T03:18:37;4.43;;;3.53;;
1925;SDS011;964;42.606;23.588;2022-07-21T03:21:05;4.40;;;3.63;;
1925;SDS011;964;42.606;23.588;2022-07-21T03:23:32;3.67;;;3.33;;
1925;SDS011;964;42.606;23.588;2022-07-21T03:25:59;10.57;;;4.03;;
1925;SDS011;964;42.606;23.588;2022-07-21T03:28:26;3.37;;;3.07;;
1925;SDS011;964;42.606;23.588;2022-07-21T03:30:53;4.10;;;3.70;;
1925;SDS011;964;42.606;23.588;2022-07-21T03:33:19;5.93;;;4.07;;
1925;SDS011;964;42.606;23.588;2022-07-21T03:35:46;6.90;;;3.73;;
1925;SDS011;964;42.606;23.588;2022-07-21T03:38:15;5.63;;;3.40;;
1925;SDS011;964;42.606;23.588;2022-07-21T03:40:41;10.20;;;4.43;;
1925;SDS011;964;42.606;23.588;2022-07-21T03:43:08;6.43;;;4.60;;
1925;SDS011;964;42.606;23.588;2022-07-21T03:45:35;7.30;;;4.30;;
1925;SDS011;964;42.606;23.588;2022-07-21T03:48:03;9.00;;;4.80;;
1925;SDS011;964;42.606;23.588;2022-07-21T03:50:31;7.87;;;4.40;;
1925;SDS011;964;42.606;23.588;2022-07-21T03:52:58;10.27;;;4.13;;
1925;SDS011;964;42.606;23.588;2022-07-21T03:55:27;8.17;;;4.17;;
1925;SDS011;964;42.606;23.588;2022-07-21T03:57:56;17.70;;;5.00;;
1925;SDS011;964;42.606;23.588;2022-07-21T04:00:25;6.43;;;4.03;;
1925;SDS011;964;42.606;23.588;2022-07-21T04:02:54;4.90;;;3.63;;
1925;SDS011;964;42.606;23.588;2022-07-21T04:05:21;8.50;;;4.30;;
1925;SDS011;964;42.606;23.588;2022-07-21T04:07:48;11.13;;;4.47;;
1925;SDS011;964;42.606;23.588;2022-07-21T04:10:17;4.27;;;3.87;;
1925;SDS011;964;42.606;23.588;2022-07-21T04:12:48;7.20;;;3.87;;
1925;SDS011;964;42.606;23.588;2022-07-21T04:15:15;3.60;;;3.27;;
1925;SDS011;964;42.606;23.588;2022-07-21T04:17:43;5.30;;;3.33;;
1925;SDS011;964;42.606;23.588;2022-07-21T04:20:10;3.93;;;3.63;;
1925;SDS011;964;42.606;23.588;2022-07-21T04:22:39;6.00;;;3.50;;
1925;SDS011;964;42.606;23.588;2022-07-21T04:25:07;7.77;;;3.90;;
1925;SDS011;964;42.606;23.588;2022-07-21T04:27:34;4.20;;;3.20;;
1925;SDS011;964;42.606;23.588;2022-07-21T04:30:04;3.33;;;3.10;;
1925;SDS011;964;42.606;23.588;2022-07-21T04:32:33;3.33;;;3.03;;
1925;SDS011;964;42.606;23.588;2022-07-21T04:35:00;4.50;;;3.47;;
1925;SDS011;964;42.606;23.588;2022-07-21T04:37:26;4.40;;;3.40;;
1925;SDS011;964;42.606;23.588;2022-07-21T04:39:53;5.83;;;3.97;;
1925;SDS011;964;42.606;23.588;2022-07-21T04:42:20;5.73;;;3.60;;
1925;SDS011;964;42.606;23.588;2022-07-21T04:44:46;4.90;;;4.30;;
1925;SDS011;964;42.606;23.588;2022-07-21T04:47:14;8.43;;;5.13;;
1925;SDS011;964;42.606;23.588;2022-07-21T04:49:41;8.90;;;3.77;;
1925;SDS011;964;42.606;23.588;2022-07-21T04:52:08;7.10;;;4.50;;
1925;SDS011;964;42.606;23.588;2022-07-21T04:54:35;4.33;;;3.93;;
1925;SDS011;964;42.606;23.588;2022-07-21T04:57:02;5.43;;;4.07;;
1925;SDS011;964;42.606;23.588;2022-07-21T04:59:31;4.90;;;3.63;;
1925;SDS011;964;42.606;23.588;2022-07-21T05:01:58;4.20;;;3.70;;
1925;SDS011;964;42.606;23.588;2022-07-21T05:04:27;4.40;;;4.00;;
1925;SDS011;964;42.606;23.588;2022-07-21T05:06:53;5.00;;;3.83;;
1925;SDS011;964;42.606;23.588;2022-07-21T05:09:20;4.20;;;3.90;;
1925;SDS011;964;42.606;23.588;2022-07-21T05:11:47;6.50;;;4.23;;
1925;SDS011;964;42.606;23.588;2022-07-21T05:14:14;4.87;;;4.10;;
1925;SDS011;964;42.606;23.588;2022-07-21T05:16:41;7.30;;;4.90;;
1925;SDS011;964;42.606;23.588;2022-07-21T05:19:07;6.60;;;4.90;;
1925;SDS011;964;42.606;23.588;2022-07-21T05:21:35;5.47;;;4.00;;
1925;SDS011;964;42.606;23.588;2022-07-21T05:24:02;9.20;;;4.53;;
1925;SDS011;964;42.606;23.588;2022-07-21T05:26:29;4.90;;;4.40;;
1925;SDS011;964;42.606;23.588;2022-07-21T05:28:56;4.67;;;4.27;;
1925;SDS011;964;42.606;23.588;2022-07-21T05:31:26;4.93;;;4.50;;
1925;SDS011;964;42.606;23.588;2022-07-21T05:33:53;7.07;;;4.60;;
1925;SDS011;964;42.606;23.588;2022-07-21T05:36:20;4.70;;;4.30;;
1925;SDS011;964;42.606;23.588;2022-07-21T05:38:48;6.53;;;4.53;;
1925;SDS011;964;42.606;23.588;2022-07-21T05:41:15;5.00;;;4.20;;
1925;SDS011;964;42.606;23.588;2022-07-21T05:43:42;5.20;;;4.27;;
1925;SDS011;964;42.606;23.588;2022-07-21T05:46:08;7.00;;;6.37;;
1925;SDS011;964;42.606;23.588;2022-07-21T05:48:35;5.13;;;4.63;;
1925;SDS011;964;42.606;23.588;2022-07-21T05:51:02;5.83;;;4.40;;
1925;SDS011;964;42.606;23.588;2022-07-21T05:53:29;6.27;;;5.50;;
1925;SDS011;964;42.606;23.588;2022-07-21T05:55:57;10.43;;;5.10;;
1925;SDS011;964;42.606;23.588;2022-07-21T05:58:24;6.07;;;5.47;;
1925;SDS011;964;42.606;23.588;2022-07-21T06:00:52;6.20;;;5.07;;
1925;SDS011;964;42.606;23.588;2022-07-21T06:03:34;5.97;;;4.93;;
1925;SDS011;964;42.606;23.588;2022-07-21T06:06:01;6.10;;;5.50;;
1925;SDS011;964;42.606;23.588;2022-07-21T06:08:28;10.43;;;5.40;;
1925;SDS011;964;42.606;23.588;2022-07-21T06:10:57;6.30;;;4.63;;
1925;SDS011;964;42.606;23.588;2022-07-21T06:13:24;6.00;;;5.10;;
1925;SDS011;964;42.606;23.588;2022-07-21T06:15:51;8.93;;;5.27;;
1925;SDS011;964;42.606;23.588;2022-07-21T06:18:18;5.33;;;4.60;;
1925;SDS011;964;42.606;23.588;2022-07-21T06:20:44;5.87;;;5.27;;
1925;SDS011;964;42.606;23.588;2022-07-21T06:23:11;5.93;;;5.10;;
1925;SDS011;964;42.606;23.588;2022-07-21T06:25:38;5.50;;;4.97;;
1925;SDS011;964;42.606;23.588;2022-07-21T06:28:06;5.70;;;5.20;;
1925;SDS011;964;42.606;23.588;2022-07-21T06:30:33;5.73;;;4.83;;
1925;SDS011;964;42.606;23.588;2022-07-21T06:33:00;5.90;;;4.70;;
1925;SDS011;964;42.606;23.588;2022-07-21T06:35:27;8.47;;;5.20;;
1925;SDS011;964;42.606;23.588;2022-07-21T06:37:53;5.70;;;4.70;;
1925;SDS011;964;42.606;23.588;2022-07-21T06:40:20;6.20;;;4.60;;
1925;SDS011;964;42.606;23.588;2022-07-21T06:42:47;6.57;;;4.40;;
1925;SDS011;964;42.606;23.588;2022-07-21T06:45:15;5.13;;;4.50;;
1925;SDS011;964;42.606;23.588;2022-07-21T06:47:42;5.43;;;4.63;;
1925;SDS011;964;42.606;23.588;2022-07-21T06:50:09;4.17;;;3.60;;
1925;SDS011;964;42.606;23.588;2022-07-21T06:52:36;6.23;;;4.43;;
1925;SDS011;964;42.606;23.588;2022-07-21T06:55:04;5.90;;;4.57;;
1925;SDS011;964;42.606;23.588;2022-07-21T06:57:32;5.07;;;4.57;;
1925;SDS011;964;42.606;23.588;2022-07-21T07:00:00;4.77;;;4.17;;
1925;SDS011;964;42.606;23.588;2022-07-21T07:02:28;6.77;;;4.60;;
1925;SDS011;964;42.606;23.588;2022-07-21T07:04:55;5.57;;;4.30;;
1925;SDS011;964;42.606;23.588;2022-07-21T07:07:22;4.23;;;3.83;;
1925;SDS011;964;42.606;23.588;2022-07-21T07:09:49;5.10;;;4.60;;
1925;SDS011;964;42.606;23.588;2022-07-21T07:12:15;5.20;;;4.10;;
1925;SDS011;964;42.606;23.588;2022-07-21T07:14:42;4.47;;;4.07;;
1925;SDS011;964;42.606;23.588;2022-07-21T07:17:09;4.60;;;4.30;;
1925;SDS011;964;42.606;23.588;2022-07-21T07:19:39;3.90;;;3.60;;
1925;SDS011;964;42.606;23.588;2022-07-21T07:22:06;4.90;;;4.07;;
1925;SDS011;964;42.606;23.588;2022-07-21T07:24:32;3.97;;;3.67;;
1925;SDS011;964;42.606;23.588;2022-07-21T07:26:59;4.03;;;3.73;;
1925;SDS011;964;42.606;23.588;2022-07-21T07:29:26;4.53;;;3.70;;
1925;SDS011;964;42.606;23.588;2022-07-21T07:31:54;5.37;;;3.70;;
1925;SDS011;964;42.606;23.588;2022-07-21T07:34:20;5.03;;;3.97;;
1925;SDS011;964;42.606;23.588;2022-07-21T07:36:48;6.50;;;3.50;;
1925;SDS011;964;42.606;23.588;2022-07-21T07:39:16;5.90;;;4.63;;
1925;SDS011;964;42.606;23.588;2022-07-21T07:41:43;4.10;;;3.60;;
1925;SDS011;964;42.606;23.588;2022-07-21T07:44:10;5.70;;;3.73;;
1925;SDS011;964;42.606;23.588;2022-07-21T07:46:37;5.50;;;3.73;;
1925;SDS011;964;42.606;23.588;2022-07-21T07:49:03;5.70;;;3.77;;
1925;SDS011;964;42.606;23.588;2022-07-21T07:51:30;4.00;;;3.50;;
1925;SDS011;964;42.606;23.588;2022-07-21T07:53:58;4.47;;;3.70;;
1925;SDS011;964;42.606;23.588;2022-07-21T07:56:28;9.50;;;4.10;;
1925;SDS011;964;42.606;23.588;2022-07-21T07:58:55;5.20;;;3.47;;
1925;SDS011;964;42.606;23.588;2022-07-21T08:01:22;4.57;;;4.20;;
1925;SDS011;964;42.606;23.588;2022-07-21T08:03:48;7.97;;;3.87;;
1925;SDS011;964;42.606;23.588;2022-07-21T08:06:15;4.97;;;3.63;;
1925;SDS011;964;42.606;23.588;2022-07-21T08:08:42;7.53;;;4.10;;
1925;SDS011;964;42.606;23.588;2022-07-21T08:11:10;5.47;;;4.60;;
1925;SDS011;964;42.606;23.588;2022-07-21T08:13:38;7.53;;;4.70;;
1925;SDS011;964;42.606;23.588;2022-07-21T08:16:05;5.77;;;4.40;;
1925;SDS011;964;42.606;23.588;2022-07-21T08:18:32;4.40;;;4.00;;
1925;SDS011;964;42.606;23.588;2022-07-21T08:20:59;7.20;;;4.60;;
1925;SDS011;964;42.606;23.588;2022-07-21T08:23:26;7.53;;;4.53;;
1925;SDS011;964;42.606;23.588;2022-07-21T08:25:53;7.77;;;5.23;;
1925;SDS011;964;42.606;23.588;2022-07-21T08:28:21;8.63;;;5.10;;
1925;SDS011;964;42.606;23.588;2022-07-21T08:30:47;5.43;;;4.67;;
1925;SDS011;964;42.606;23.588;2022-07-21T08:33:14;8.97;;;5.20;;
1925;SDS011;964;42.606;23.588;2022-07-21T08:35:41;6.83;;;4.67;;
1925;SDS011;964;42.606;23.588;2022-07-21T08:38:08;7.20;;;4.10;;
1925;SDS011;964;42.606;23.588;2022-07-21T08:40:38;9.27;;;4.03;;
1925;SDS011;964;42.606;23.588;2022-07-21T08:43:07;6.43;;;4.10;;
1925;SDS011;964;42.606;23.588;2022-07-21T08:45:36;4.47;;;3.90;;
1925;SDS011;964;42.606;23.588;2022-07-21T08:48:03;5.30;;;4.23;;
1925;SDS011;964;42.606;23.588;2022-07-21T08:50:31;9.63;;;4.00;;
1925;SDS011;964;42.606;23.588;2022-07-21T08:53:01;6.93;;;3.80;;
1925;SDS011;964;42.606;23.588;2022-07-21T08:55:28;4.07;;;3.70;;
1925;SDS011;964;42.606;23.588;2022-07-21T08:57:56;4.37;;;3.60;;
1925;SDS011;964;42.606;23.588;2022-07-21T09:00:23;4.83;;;4.33;;
1925;SDS011;964;42.606;23.588;2022-07-21T09:02:51;4.40;;;4.00;;
1925;SDS011;964;42.606;23.588;2022-07-21T09:05:34;4.17;;;3.40;;
1925;SDS011;964;42.606;23.588;2022-07-21T09:08:01;4.00;;;3.43;;
1925;SDS011;964;42.606;23.588;2022-07-21T09:10:29;5.43;;;3.40;;
1925;SDS011;964;42.606;23.588;2022-07-21T09:12:58;3.80;;;3.50;;
1925;SDS011;964;42.606;23.588;2022-07-21T09:15:27;7.57;;;3.43;;
1925;SDS011;964;42.606;23.588;2022-07-21T09:18:05;5.17;;;3.87;;
1925;SDS011;964;42.606;23.588;2022-07-21T09:20:34;3.47;;;3.20;;
1925;SDS011;964;42.606;23.588;2022-07-21T09:23:03;3.93;;;3.63;;
1925;SDS011;964;42.606;23.588;2022-07-21T09:28:25;3.80;;;3.50;;
1925;SDS011;964;42.606;23.588;2022-07-21T09:30:57;4.20;;;3.50;;
1925;SDS011;964;42.606;23.588;2022-07-21T09:33:28;3.33;;;3.10;;
1925;SDS011;964;42.606;23.588;2022-07-21T09:35:58;5.10;;;3.50;;
1925;SDS011;964;42.606;23.588;2022-07-21T09:38:31;3.53;;;3.22;;
1925;SDS011;964;42.606;23.588;2022-07-21T09:41:06;3.25;;;2.95;;
1925;SDS011;964;42.606;23.588;2022-07-21T09:43:36;3.65;;;3.35;;
1925;SDS011;964;42.606;23.588;2022-07-21T09:46:12;3.47;;;3.17;;
1925;SDS011;964;42.606;23.588;2022-07-21T09:48:43;6.03;;;3.05;;
1925;SDS011;964;42.606;23.588;2022-07-21T09:51:21;5.72;;;3.15;;
1925;SDS011;964;42.606;23.588;2022-07-21T09:53:54;2.70;;;2.42;;
1925;SDS011;964;42.606;23.588;2022-07-21T09:56:24;3.35;;;3.05;;
1925;SDS011;964;42.606;23.588;2022-07-21T09:58:52;3.33;;;2.70;;
1925;SDS011;964;42.606;23.588;2022-07-21T10:01:20;3.15;;;2.95;;
1925;SDS011;964;42.606;23.588;2022-07-21T10:03:50;2.85;;;2.65;;
1925;SDS011;964;42.606;23.588;2022-07-21T10:06:19;3.40;;;3.10;;
1925;SDS011;964;42.606;23.588;2022-07-21T10:08:49;3.50;;;2.88;;
1925;SDS011;964;42.606;23.588;2022-07-21T10:11:16;3.10;;;2.90;;
1925;SDS011;964;42.606;23.588;2022-07-21T10:13:44;2.95;;;2.75;;
1925;SDS011;964;42.606;23.588;2022-07-21T10:16:38;3.50;;;3.10;;
1925;SDS011;964;42.606;23.588;2022-07-21T10:19:08;3.35;;;2.80;;
1925;SDS011;964;42.606;23.588;2022-07-21T10:21:41;3.13;;;2.92;;
1925;SDS011;964;42.606;23.588;2022-07-21T10:24:12;2.97;;;2.67;;
1925;SDS011;964;42.606;23.588;2022-07-21T10:26:58;3.70;;;3.40;;
1925;SDS011;964;42.606;23.588;2022-07-21T10:32:17;5.05;;;2.95;;
1925;SDS011;964;42.606;23.588;2022-07-21T10:34:48;3.95;;;3.55;;
1925;SDS011;964;42.606;23.588;2022-07-21T10:46:31;2.83;;;2.63;;
1925;SDS011;964;42.606;23.588;2022-07-21T10:49:02;3.72;;;2.78;;
1925;SDS011;964;42.606;23.588;2022-07-21T10:51:33;3.03;;;2.78;;
1925;SDS011;964;42.606;23.588;2022-07-21T10:56:48;2.72;;;2.53;;
1925;SDS011;964;42.606;23.588;2022-07-21T10:59:15;3.20;;;2.90;;
1925;SDS011;964;42.606;23.588;2022-07-21T11:01:42;3.08;;;2.80;;
1925;SDS011;964;42.606;23.588;2022-07-21T11:04:10;3.00;;;2.58;;
1925;SDS011;964;42.606;23.588;2022-07-21T11:06:40;3.53;;;3.20;;
1925;SDS011;964;42.606;23.588;2022-07-21T11:09:08;3.15;;;2.83;;
1925;SDS011;964;42.606;23.588;2022-07-21T11:11:40;3.42;;;3.13;;
1925;SDS011;964;42.606;23.588;2022-07-21T11:14:34;3.35;;;2.75;;
1925;SDS011;964;42.606;23.588;2022-07-21T11:17:03;6.35;;;2.53;;
1925;SDS011;964;42.606;23.588;2022-07-21T11:19:31;3.55;;;3.25;;
1925;SDS011;964;42.606;23.588;2022-07-21T11:22:03;5.05;;;2.80;;
1925;SDS011;964;42.606;23.588;2022-07-21T11:24:32;2.85;;;2.65;;
1925;SDS011;964;42.606;23.588;2022-07-21T11:27:03;3.45;;;2.72;;
1925;SDS011;964;42.606;23.588;2022-07-21T11:29:31;2.40;;;2.28;;
1925;SDS011;964;42.606;23.588;2022-07-21T11:31:59;2.70;;;2.50;;
1925;SDS011;964;42.606;23.588;2022-07-21T11:34:37;4.07;;;3.22;;
1925;SDS011;964;42.606;23.588;2022-07-21T11:37:08;3.08;;;2.88;;
1925;SDS011;964;42.606;23.588;2022-07-21T11:39:37;2.95;;;2.75;;
1925;SDS011;964;42.606;23.588;2022-07-21T11:42:05;3.90;;;3.50;;
1925;SDS011;964;42.606;23.588;2022-07-21T11:44:33;3.33;;;2.40;;
1925;SDS011;964;42.606;23.588;2022-07-21T11:47:01;3.05;;;2.75;;
1925;SDS011;964;42.606;23.588;2022-07-21T11:49:30;3.40;;;3.10;;
1925;SDS011;964;42.606;23.588;2022-07-21T11:51:58;2.90;;;2.70;;
1925;SDS011;964;42.606;23.588;2022-07-21T11:54:33;3.63;;;2.83;;
1925;SDS011;964;42.606;23.588;2022-07-21T11:57:02;2.88;;;2.67;;
1925;SDS011;964;42.606;23.588;2022-07-21T11:59:31;3.05;;;2.30;;
1925;SDS011;964;42.606;23.588;2022-07-21T12:02:00;2.78;;;2.47;;
1925;SDS011;964;42.606;23.588;2022-07-21T12:04:39;3.22;;;2.92;;
1925;SDS011;964;42.606;23.588;2022-07-21T12:07:12;3.28;;;3.03;;
1925;SDS011;964;42.606;23.588;2022-07-21T12:09:44;3.75;;;3.10;;
1925;SDS011;964;42.606;23.588;2022-07-21T12:12:12;3.92;;;3.33;;
1925;SDS011;964;42.606;23.588;2022-07-21T12:14:44;3.30;;;2.95;;
1925;SDS011;964;42.606;23.588;2022-07-21T12:17:13;4.13;;;2.88;;
1925;SDS011;964;42.606;23.588;2022-07-21T12:19:41;3.47;;;3.17;;
1925;SDS011;964;42.606;23.588;2022-07-21T12:22:09;2.83;;;2.63;;
1925;SDS011;964;42.606;23.588;2022-07-21T12:24:54;3.05;;;2.78;;
1925;SDS011;964;42.606;23.588;2022-07-21T12:27:23;3.42;;;3.13;;
1925;SDS011;964;42.606;23.588;2022-07-21T12:29:51;4.70;;;2.53;;
1925;SDS011;964;42.606;23.588;2022-07-21T12:35:04;2.72;;;2.53;;
1925;SDS011;964;42.606;23.588;2022-07-21T12:37:51;2.85;;;2.63;;
1925;SDS011;964;42.606;23.588;2022-07-21T12:40:38;6.97;;;3.22;;
1925;SDS011;964;42.606;23.588;2022-07-21T12:43:07;3.10;;;2.80;;
1925;SDS011;964;42.606;23.588;2022-07-21T12:48:26;3.00;;;2.80;;
1925;SDS011;964;42.606;23.588;2022-07-21T12:53:47;3.38;;;3.10;;
1925;SDS011;964;42.606;23.588;2022-07-21T12:56:17;3.60;;;3.25;;
1925;SDS011;964;42.606;23.588;2022-07-21T12:58:46;4.05;;;2.92;;
1925;SDS011;964;42.606;23.588;2022-07-21T13:01:14;2.88;;;2.67;;
1925;SDS011;964;42.606;23.588;2022-07-21T13:03:41;3.33;;;2.88;;
1925;SDS011;964;42.606;23.588;2022-07-21T13:06:08;2.90;;;2.60;;
1925;SDS011;964;42.606;23.588;2022-07-21T13:08:36;3.40;;;3.10;;
1925;SDS011;964;42.606;23.588;2022-07-21T13:11:03;2.83;;;2.60;;
1925;SDS011;964;42.606;23.588;2022-07-21T13:13:32;6.88;;;2.92;;
1925;SDS011;964;42.606;23.588;2022-07-21T13:15:59;4.22;;;3.40;;
1925;SDS011;964;42.606;23.588;2022-07-21T13:18:26;4.65;;;2.95;;
1925;SDS011;964;42.606;23.588;2022-07-21T13:20:53;3.35;;;3.10;;
1925;SDS011;964;42.606;23.588;2022-07-21T13:23:20;3.70;;;3.40;;
1925;SDS011;964;42.606;23.588;2022-07-21T13:25:47;3.60;;;3.30;;
1925;SDS011;964;42.606;23.588;2022-07-21T13:28:14;3.95;;;3.30;;
1925;SDS011;964;42.606;23.588;2022-07-21T13:30:43;3.00;;;2.80;;
1925;SDS011;964;42.606;23.588;2022-07-21T13:33:11;2.80;;;2.50;;
1925;SDS011;964;42.606;23.588;2022-07-21T13:35:38;3.75;;;3.38;;
1925;SDS011;964;42.606;23.588;2022-07-21T13:38:04;3.45;;;3.15;;
1925;SDS011;964;42.606;23.588;2022-07-21T13:40:31;3.40;;;3.10;;
1925;SDS011;964;42.606;23.588;2022-07-21T13:42:58;4.85;;;3.42;;
1925;SDS011;964;42.606;23.588;2022-07-21T13:45:25;3.65;;;3.45;;
1925;SDS011;964;42.606;23.588;2022-07-21T13:47:53;3.85;;;3.50;;
1925;SDS011;964;42.606;23.588;2022-07-21T13:50:20;4.03;;;3.65;;
1925;SDS011;964;42.606;23.588;2022-07-21T13:52:47;4.00;;;3.10;;
1925;SDS011;964;42.606;23.588;2022-07-21T13:55:13;3.38;;;3.08;;
1925;SDS011;964;42.606;23.588;2022-07-21T13:57:40;3.70;;;3.40;;
1925;SDS011;964;42.606;23.588;2022-07-21T14:00:09;3.58;;;3.13;;
1925;SDS011;964;42.606;23.588;2022-07-21T14:02:37;3.72;;;3.13;;
1925;SDS011;964;42.606;23.588;2022-07-21T14:05:07;4.10;;;3.75;;
1925;SDS011;964;42.606;23.588;2022-07-21T14:07:34;3.75;;;3.10;;
1925;SDS011;964;42.606;23.588;2022-07-21T14:10:03;3.20;;;3.00;;
1925;SDS011;964;42.606;23.588;2022-07-21T14:12:31;3.60;;;3.38;;
1925;SDS011;964;42.606;23.588;2022-07-21T14:14:57;4.65;;;3.30;;
1925;SDS011;964;42.606;23.588;2022-07-21T14:17:24;3.05;;;2.85;;
1925;SDS011;964;42.606;23.588;2022-07-21T14:19:51;2.78;;;2.47;;
1925;SDS011;964;42.606;23.588;2022-07-21T14:22:19;3.47;;;3.17;;
1925;SDS011;964;42.606;23.588;2022-07-21T14:24:46;3.50;;;3.20;;
1925;SDS011;964;42.606;23.588;2022-07-21T14:27:31;3.50;;;3.20;;
1925;SDS011;964;42.606;23.588;2022-07-21T14:29:58;5.65;;;3.38;;
1925;SDS011;964;42.606;23.588;2022-07-21T14:32:26;3.60;;;3.30;;
1925;SDS011;964;42.606;23.588;2022-07-21T14:34:52;3.85;;;2.88;;
1925;SDS011;964;42.606;23.588;2022-07-21T14:37:21;5.57;;;3.10;;
1925;SDS011;964;42.606;23.588;2022-07-21T14:39:48;3.20;;;2.90;;
1925;SDS011;964;42.606;23.588;2022-07-21T14:42:15;3.30;;;2.67;;
1925;SDS011;964;42.606;23.588;2022-07-21T14:44:43;2.92;;;2.60;;
1925;SDS011;964;42.606;23.588;2022-07-21T14:47:10;3.85;;;3.13;;
1925;SDS011;964;42.606;23.588;2022-07-21T14:49:38;3.00;;;2.80;;
1925;SDS011;964;42.606;23.588;2022-07-21T14:52:04;3.38;;;2.80;;
1925;SDS011;964;42.606;23.588;2022-07-21T14:54:32;3.22;;;2.92;;
1925;SDS011;964;42.606;23.588;2022-07-21T14:56:59;5.50;;;3.17;;
1925;SDS011;964;42.606;23.588;2022-07-21T14:59:26;5.88;;;3.10;;
1925;SDS011;964;42.606;23.588;2022-07-21T15:01:53;2.90;;;2.70;;
1925;SDS011;964;42.606;23.588;2022-07-21T15:04:20;3.63;;;2.90;;
1925;SDS011;964;42.606;23.588;2022-07-21T15:06:47;4.20;;;3.05;;
1925;SDS011;964;42.606;23.588;2022-07-21T15:09:14;3.00;;;2.80;;
1925;SDS011;964;42.606;23.588;2022-07-21T15:11:42;3.40;;;3.10;;
1925;SDS011;964;42.606;23.588;2022-07-21T15:14:09;5.28;;;3.58;;
1925;SDS011;964;42.606;23.588;2022-07-21T15:16:36;3.30;;;3.00;;
1925;SDS011;964;42.606;23.588;2022-07-21T15:19:03;3.60;;;2.83;;
1925;SDS011;964;42.606;23.588;2022-07-21T15:21:30;3.90;;;3.55;;
1925;SDS011;964;42.606;23.588;2022-07-21T15:23:56;4.22;;;3.08;;
1925;SDS011;964;42.606;23.588;2022-07-21T15:26:23;2.75;;;2.55;;
1925;SDS011;964;42.606;23.588;2022-07-21T15:28:52;4.18;;;3.35;;
1925;SDS011;964;42.606;23.588;2022-07-21T15:31:18;3.90;;;3.25;;
1925;SDS011;964;42.606;23.588;2022-07-21T15:33:45;3.20;;;2.90;;
1925;SDS011;964;42.606;23.588;2022-07-21T15:36:12;3.33;;;2.95;;
1925;SDS011;964;42.606;23.588;2022-07-21T15:38:39;3.15;;;2.88;;
1925;SDS011;964;42.606;23.588;2022-07-21T15:41:07;4.75;;;2.95;;
1925;SDS011;964;42.606;23.588;2022-07-21T15:43:34;3.90;;;3.50;;
1925;SDS011;964;42.606;23.588;2022-07-21T15:46:02;5.07;;;3.70;;
1925;SDS011;964;42.606;23.588;2022-07-21T15:48:29;4.05;;;2.95;;